Gogama, Canada
Current Conditions -  °F | °C
As of 5:00 AM on Saturday 22 Nov 2014 (Local Time) from CYTS Reporting Station
Overcast Overcast  
Wind Chill: 20°   Ceiling: 1700
Heat Index: 30°   Visibility: 15mi
Dew Point: 25°   Wind: 13mph
Humidity: 80%   Direction: 230°SW
Pressure: 29.61"   Gusts: 29mph
Location:  47.67°N, 81.72°W
Report Text: CYTS 221000Z 23011G25KT 15SM OVC017 M01/M04 A2961 RMK SC8 SLP047
Loading
Personal Weather Stations






























Interactive Weather Map New forecast layout! Learn more

10-Day Weather Forecast

Advertisements
Track Severe Weather on mobile